^^
Saratoga-Weather Station Historical Data
Daily Summary for April 4, 2021 Units:  Metric    English   Both
Daily Weekly Monthly Yearly Custom
  High: Low: Average:
Temperature: 12.1 °C 6.2 °C 9.6 °C
Dew Point: 8.1 °C -1.2 °C 3.7 °C
Humidity: 87% 43% 68%
Wind Speed: 22.7km/h 0km/h 6.2km/h
Wind Gust: 38.6km/h - -
Wind- - SW
Pressure: 1011.5 hPa 1004.7 hPa -
Precipitation: 7.4 mm    
Historical Graphs
 
 
Tabular Data for April 4, 2021
Time Temperature Dew Point Pressure Wind Wind Speed Wind Gust Humidity Rainfall Rate (Hourly) solar
00:04 9.2 °C 2.1 °C 1011.5 hPa NE 1.4 km/h 3.2 km/h 61% 0.0 mm 0 W/m2
00:09 9.6 °C 2 °C 1011.2 hPa NE 3.2 km/h 6.4 km/h 59% 0.0 mm 0 W/m2
00:14 9.9 °C 1.8 °C 1011.2 hPa NE 1.4 km/h 3.2 km/h 57% 0.0 mm 0 W/m2
00:19 10.2 °C 1.8 °C 1011.2 hPa North 4.7 km/h 8 km/h 56% 0.0 mm 0 W/m2
00:24 10.5 °C 1.8 °C 1010.8 hPa ENE 6.4 km/h 6.4 km/h 55% 0.0 mm 0 W/m2
00:29 10.8 °C 1.9 °C 1010.8 hPa NNE 1.4 km/h 9.7 km/h 54% 0.0 mm 0 W/m2
00:35 11 °C 1.8 °C 1010.8 hPa Calm   9.7 km/h 53% 0.0 mm 0 W/m2
00:40 11.1 °C 1.9 °C 1010.8 hPa ENE 6.4 km/h 8 km/h 53% 0.0 mm 0 W/m2
00:45 11.2 °C 2 °C 1010.8 hPa NE 3.2 km/h 4.8 km/h 53% 0.0 mm 0 W/m2
00:50 11.3 °C 1.8 °C 1010.5 hPa NW 11.1 km/h 12.9 km/h 52% 0.0 mm 0 W/m2
00:55 11.4 °C 1.9 °C 1010.5 hPa North 4.7 km/h 8 km/h 52% 0.0 mm 0 W/m2
01:00 11.4 °C 1.9 °C 1010.5 hPa WNW 4.7 km/h 12.9 km/h 52% 0.0 mm 0 W/m2
01:05 11.4 °C 1.9 °C 1010.5 hPa ENE 1.4 km/h 6.4 km/h 52% 0.0 mm 0 W/m2
01:10 11.4 °C 1.9 °C 1010.2 hPa North 1.4 km/h 4.8 km/h 52% 0.0 mm 0 W/m2
01:15 11.3 °C 1.8 °C 1010.2 hPa NE 1.4 km/h 6.4 km/h 52% 0.0 mm 0 W/m2
01:20 11.3 °C 1.8 °C 1010.2 hPa North 1.4 km/h 8 km/h 52% 0.0 mm 0 W/m2
01:25 11.3 °C 2.1 °C 1010.2 hPa NE 4.7 km/h 4.8 km/h 53% 0.0 mm 0 W/m2
01:30 11.3 °C 2.1 °C 1009.8 hPa NNE 4.7 km/h 14.5 km/h 53% 0.0 mm 0 W/m2
01:35 11.3 °C 2.1 °C 1009.5 hPa North 1.4 km/h 9.7 km/h 53% 0.0 mm 0 W/m2
01:40 11.3 °C 2.1 °C 1009.5 hPa NNE 1.4 km/h 6.4 km/h 53% 0.0 mm 0 W/m2
01:45 11.2 °C 2 °C 1009.5 hPa NNW 3.2 km/h 6.4 km/h 53% 0.0 mm 0 W/m2
01:50 11.2 °C 2.2 °C 1009.5 hPa NE 3.2 km/h 9.7 km/h 54% 0.0 mm 0 W/m2
01:55 11.2 °C 2.2 °C 1009.1 hPa NNW 6.4 km/h 8 km/h 54% 0.0 mm 0 W/m2
02:01 11.1 °C 2.1 °C 1009.1 hPa North 4.7 km/h 8 km/h 54% 0.0 mm 0 W/m2
02:06 11.1 °C 2.1 °C 1009.1 hPa NNE 3.2 km/h 12.9 km/h 54% 0.0 mm 0 W/m2
02:11 11.1 °C 2.1 °C 1009.1 hPa NNE 4.7 km/h 4.8 km/h 54% 0.0 mm 0 W/m2
02:16 11 °C 2 °C 1009.1 hPa NW 4.7 km/h 12.9 km/h 54% 0.0 mm 0 W/m2
02:21 11.1 °C 2.1 °C 1008.8 hPa NE 3.2 km/h 6.4 km/h 54% 0.0 mm 0 W/m2
02:26 11 °C 2 °C 1008.8 hPa SE 1.4 km/h 6.4 km/h 54% 0.0 mm 0 W/m2
02:31 10.9 °C 2.2 °C 1008.5 hPa Calm   4.8 km/h 55% 0.0 mm 0 W/m2
02:36 10.8 °C 2.1 °C 1008.5 hPa ENE 17.7 km/h 22.5 km/h 55% 0.0 mm 0 W/m2
02:41 10.9 °C 2.2 °C 1008.5 hPa NE 1.4 km/h 4.8 km/h 55% 0.0 mm 0 W/m2
02:46 10.8 °C 2.1 °C 1008.5 hPa North 6.4 km/h 22.5 km/h 55% 0.0 mm 0 W/m2
02:51 10.8 °C 2.1 °C 1008.5 hPa North 1.4 km/h 6.4 km/h 55% 0.0 mm 0 W/m2
02:56 10.7 °C 2.3 °C 1008.1 hPa NNE 4.7 km/h 8 km/h 56% 0.0 mm 0 W/m2
03:01 10.8 °C 2.1 °C 1008.1 hPa NW 1.4 km/h 4.8 km/h 55% 0.0 mm 0 W/m2
03:06 10.8 °C 2.4 °C 1008.1 hPa NW 3.2 km/h 4.8 km/h 56% 0.0 mm 0 W/m2
03:11 10.7 °C 2.3 °C 1007.8 hPa Calm   3.2 km/h 56% 0.0 mm 0 W/m2
03:16 10.7 °C 2.3 °C 1007.8 hPa North 1.4 km/h 4.8 km/h 56% 0.0 mm 0 W/m2
03:21 10.7 °C 2.3 °C 1007.8 hPa North 3.2 km/h 8 km/h 56% 0.0 mm 0 W/m2
03:26 10.6 °C 2.2 °C 1007.8 hPa North 1.4 km/h 4.8 km/h 56% 0.0 mm 0 W/m2
03:31 10.5 °C 2.3 °C 1007.5 hPa WNW 6.4 km/h 11.3 km/h 57% 0.0 mm 0 W/m2
03:36 10.4 °C 2.2 °C 1007.5 hPa ESE 4.7 km/h 6.4 km/h 57% 0.0 mm 0 W/m2
03:41 10.3 °C 2.4 °C 1007.1 hPa ENE 3.2 km/h 14.5 km/h 58% 0.0 mm 0 W/m2
03:46 10.3 °C 2.4 °C 1007.1 hPa NNW 3.2 km/h 6.4 km/h 58% 0.0 mm 0 W/m2
03:51 10.2 °C 2.3 °C 1007.1 hPa NE 9.7 km/h 14.5 km/h 58% 0.0 mm 0 W/m2
03:56 10.1 °C 2.2 °C 1007.1 hPa ENE 3.2 km/h 12.9 km/h 58% 0.0 mm 0 W/m2
04:01 10.1 °C 2.2 °C 1007.1 hPa NE 3.2 km/h 14.5 km/h 58% 0.0 mm 0 W/m2
04:06 10.1 °C 2.4 °C 1007.1 hPa East 1.4 km/h 4.8 km/h 59% 0.0 mm 0 W/m2
04:11 10.1 °C 2.4 °C 1006.8 hPa North 4.7 km/h 4.8 km/h 59% 0.0 mm 0 W/m2
04:16 10 °C 2.4 °C 1006.8 hPa East 3.2 km/h 8 km/h 59% 0.0 mm 0 W/m2
04:21 10.2 °C 2.3 °C 1006.8 hPa NNW 3.2 km/h 8 km/h 58% 0.0 mm 0 W/m2
04:26 10.2 °C 2.3 °C 1006.8 hPa West 4.7 km/h 16.1 km/h 58% 0.0 mm 0 W/m2
04:31 10.3 °C 2.2 °C 1006.8 hPa West 4.7 km/h 11.3 km/h 57% 0.0 mm 0 W/m2
04:36 10.3 °C 2.2 °C 1006.4 hPa ESE 4.7 km/h 8 km/h 57% 0.0 mm 0 W/m2
04:41 10.4 °C 2 °C 1006.4 hPa West 4.7 km/h 6.4 km/h 56% 0.0 mm 0 W/m2
04:47 10.5 °C 2.1 °C 1006.4 hPa NNE 3.2 km/h 8 km/h 56% 0.0 mm 0 W/m2
04:52 10.6 °C 1.9 °C 1006.4 hPa NNW 9.7 km/h 14.5 km/h 55% 0.0 mm 0 W/m2
04:57 10.7 °C 1.5 °C 1006.4 hPa ENE 3.2 km/h 9.7 km/h 53% 0.0 mm 0 W/m2
05:02 10.8 °C 1.3 °C 1006.1 hPa NW 3.2 km/h 4.8 km/h 52% 0.0 mm 0 W/m2
05:07 10.8 °C 1.1 °C 1006.1 hPa WNW 6.4 km/h 6.4 km/h 51% 0.0 mm 0 W/m2
05:12 10.9 °C 0.9 °C 1006.1 hPa South 4.7 km/h 12.9 km/h 50% 0.0 mm 0 W/m2
05:17 10.9 °C 0.6 °C 1006.1 hPa NNE 4.7 km/h 9.7 km/h 49% 0.0 mm 0 W/m2
05:22 11 °C 0.7 °C 1006.1 hPa NW 3.2 km/h 35.4 km/h 49% 0.0 mm 0 W/m2
05:27 11 °C 0.4 °C 1006.1 hPa WNW 4.7 km/h 6.4 km/h 48% 0.0 mm 0 W/m2
05:32 11 °C 0.4 °C 1006.1 hPa WNW 13 km/h 35.4 km/h 48% 0.0 mm 0 W/m2
05:37 11 °C 0.4 °C 1006.1 hPa WNW 3.2 km/h 12.9 km/h 48% 0.0 mm 0 W/m2
05:42 11 °C 0.4 °C 1005.8 hPa NW 17.7 km/h 17.7 km/h 48% 0.0 mm 0 W/m2
05:47 10.9 °C 0 °C 1006.1 hPa West 22.7 km/h 22.5 km/h 47% 0.0 mm 0 W/m2
05:52 10.9 °C -0.6 °C 1005.8 hPa NNW 7.9 km/h 11.3 km/h 45% 0.0 mm 0 W/m2
05:57 10.9 °C -0.9 °C 1005.8 hPa SE 1.4 km/h 8 km/h 44% 0.0 mm 0 W/m2
06:02 10.9 °C -1.2 °C 1005.8 hPa West 13 km/h 14.5 km/h 43% 0.0 mm 0 W/m2
06:07 10.9 °C -0.9 °C 1005.8 hPa NNE 1.4 km/h 11.3 km/h 44% 0.0 mm 0 W/m2
06:12 10.9 °C -0.9 °C 1005.8 hPa WNW 1.4 km/h 9.7 km/h 44% 0.0 mm 0 W/m2
06:17 10.9 °C -1.2 °C 1006.1 hPa NW 7.9 km/h 16.1 km/h 43% 0.0 mm 0 W/m2
06:22 10.9 °C -1.2 °C 1005.8 hPa WNW 4.7 km/h 12.9 km/h 43% 0.0 mm 0 W/m2
06:27 10.8 °C -1 °C 1005.8 hPa West 3.2 km/h 16.1 km/h 44% 0.0 mm 5 W/m2
06:32 10.8 °C -1 °C 1006.1 hPa SSW 4.7 km/h 14.5 km/h 44% 0.0 mm 5 W/m2
06:37 10.6 °C -0.2 °C 1006.1 hPa NW 19.5 km/h 20.9 km/h 47% 0.0 mm 7 W/m2
06:42 10.2 °C 0.8 °C 1006.1 hPa West 3.2 km/h 12.9 km/h 52% 0.0 mm 5 W/m2
06:47 9.6 °C 1 °C 1005.8 hPa NW 7.9 km/h 20.9 km/h 55% 0.2 mm 5 W/m2
06:52 9.1 °C 1.7 °C 1005.8 hPa South 3.2 km/h 16.1 km/h 60% 0.5 mm 5 W/m2
06:57 8.5 °C 2.3 °C 1006.1 hPa West 3.2 km/h 20.9 km/h 65% 0.8 mm 7 W/m2
07:02 7.9 °C 2.4 °C 1006.1 hPa NNW 7.9 km/h 8 km/h 68% 1.3 mm 12 W/m2
07:07 7.7 °C 2.8 °C 1006.1 hPa NNW 1.4 km/h 11.3 km/h 71% 1.5 mm 21 W/m2
07:12 7.4 °C 2.7 °C 1006.1 hPa WSW 3.2 km/h 9.7 km/h 72% 1.5 mm 21 W/m2
07:17 7.3 °C 2.6 °C 1006.1 hPa NW 7.9 km/h 16.1 km/h 72% 1.8 mm 19 W/m2
07:22 7.2 °C 2.9 °C 1006.1 hPa NW 7.9 km/h 14.5 km/h 74% 2.0 mm 21 W/m2
07:27 7 °C 2.9 °C 1006.1 hPa North 16.3 km/h 17.7 km/h 75% 2.3 mm 23 W/m2
07:32 6.9 °C 3.1 °C 1006.1 hPa WNW 6.4 km/h 12.9 km/h 77% 2.5 mm 25 W/m2
07:37 6.7 °C 3.1 °C 1006.1 hPa NNW 6.4 km/h 17.7 km/h 78% 3.0 mm 23 W/m2
07:42 6.6 °C 3.2 °C 1006.1 hPa NW 1.4 km/h 11.3 km/h 79% 3.3 mm 25 W/m2
07:47 6.5 °C 3.3 °C 1006.1 hPa North 3.2 km/h 14.5 km/h 80% 3.3 mm 26 W/m2
07:52 6.5 °C 3.5 °C 1006.1 hPa ESE 3.2 km/h 6.4 km/h 81% 3.3 mm 33 W/m2
07:57 6.4 °C 3.6 °C 1006.1 hPa West 3.2 km/h 6.4 km/h 82% 3.3 mm 25 W/m2
08:02 6.3 °C 3.5 °C 1006.1 hPa NW 3.2 km/h 6.4 km/h 82% 3.3 mm 32 W/m2
08:07 6.3 °C 3.5 °C 1006.1 hPa SSW 3.2 km/h 4.8 km/h 82% 3.3 mm 30 W/m2
08:12 6.3 °C 3.5 °C 1006.1 hPa NE 1.4 km/h 19.3 km/h 82% 3.3 mm 26 W/m2
08:17 6.3 °C 3.6 °C 1005.8 hPa NNW 4.7 km/h 17.7 km/h 83% 3.3 mm 30 W/m2
08:22 6.2 °C 3.7 °C 1005.8 hPa West 1.4 km/h 17.7 km/h 84% 3.6 mm 33 W/m2
08:27 6.2 °C 3.7 °C 1005.8 hPa NNW 3.2 km/h 14.5 km/h 84% 3.3 mm 42 W/m2
08:32 6.2 °C 3.7 °C 1005.8 hPa ENE 9.7 km/h 12.9 km/h 84% 3.3 mm 40 W/m2
08:37 6.2 °C 3.9 °C 1005.8 hPa NW 6.4 km/h 20.9 km/h 85% 3.3 mm 53 W/m2
08:42 6.2 °C 3.9 °C 1005.8 hPa NNW 6.4 km/h 9.7 km/h 85% 3.3 mm 63 W/m2
08:47 6.2 °C 4 °C 1005.8 hPa NNE 4.7 km/h 20.9 km/h 86% 3.3 mm 86 W/m2
08:52 6.2 °C 4 °C 1005.8 hPa ESE 6.4 km/h 11.3 km/h 86% 2.8 mm 95 W/m2
08:57 6.3 °C 4.1 °C 1005.8 hPa NW 9.7 km/h 12.9 km/h 86% 2.8 mm 74 W/m2
09:02 6.4 °C 4.2 °C 1005.4 hPa ENE 1.4 km/h 9.7 km/h 86% 2.5 mm 102 W/m2
09:07 6.4 °C 4.2 °C 1005.8 hPa North 6.4 km/h 6.4 km/h 86% 2.5 mm 120 W/m2
09:12 6.5 °C 4.3 °C 1005.8 hPa East 4.7 km/h 9.7 km/h 86% 2.3 mm 97 W/m2
09:17 6.6 °C 4.6 °C 1005.4 hPa West 4.7 km/h 17.7 km/h 87% 2.0 mm 128 W/m2
09:22 6.6 °C 4.6 °C 1005.1 hPa WSW 6.4 km/h 29 km/h 87% 1.8 mm 153 W/m2
09:27 6.7 °C 4.7 °C 1005.1 hPa ENE 13 km/h 12.9 km/h 87% 1.5 mm 171 W/m2
09:32 6.8 °C 4.8 °C 1005.4 hPa WSW 3.2 km/h 12.9 km/h 87% 1.5 mm 165 W/m2
09:37 7 °C 5 °C 1005.4 hPa NE 1.4 km/h 19.3 km/h 87% 1.3 mm 211 W/m2
09:42 7.1 °C 5.1 °C 1005.4 hPa NW 16.3 km/h 16.1 km/h 87% 1.0 mm 206 W/m2
09:47 7.2 °C 5 °C 1005.4 hPa NW 13 km/h 17.7 km/h 86% 0.8 mm 165 W/m2
09:52 7.3 °C 5.1 °C 1005.8 hPa WNW 9.7 km/h 19.3 km/h 86% 0.8 mm 199 W/m2
09:57 7.3 °C 5.1 °C 1005.4 hPa NNW 3.2 km/h 14.5 km/h 86% 0.5 mm 230 W/m2
10:02 7.4 °C 5.4 °C 1005.8 hPa West 9.7 km/h 17.7 km/h 87% 0.5 mm 236 W/m2
10:07 7.6 °C 5.4 °C 1005.8 hPa West 20.9 km/h 20.9 km/h 86% 0.2 mm 183 W/m2
10:12 7.6 °C 5.4 °C 1005.8 hPa NW 7.9 km/h 14.5 km/h 86% 0.2 mm 125 W/m2
10:17 7.6 °C 5.4 °C 1005.4 hPa NNW 6.4 km/h 20.9 km/h 86% 0.0 mm 220 W/m2
10:22 7.7 °C 5.5 °C 1005.4 hPa NW 3.2 km/h 14.5 km/h 86% 0.0 mm 172 W/m2
10:27 7.7 °C 5.5 °C 1005.4 hPa NNE 3.2 km/h 17.7 km/h 86% 0.0 mm 185 W/m2
10:32 7.8 °C 5.6 °C 1005.4 hPa West 3.2 km/h 20.9 km/h 86% 0.0 mm 195 W/m2
10:37 7.9 °C 5.7 °C 1005.4 hPa NNE 3.2 km/h 9.7 km/h 86% 0.0 mm 155 W/m2
10:42 8.1 °C 5.9 °C 1005.4 hPa NW 3.2 km/h 11.3 km/h 86% 0.0 mm 223 W/m2
10:47 8.3 °C 6.1 °C 1005.1 hPa WNW 16.3 km/h 19.3 km/h 86% 0.0 mm 255 W/m2
10:52 8.4 °C 6.2 °C 1005.4 hPa NNW 9.7 km/h 22.5 km/h 86% 0.0 mm 322 W/m2
10:57 8.7 °C 6.5 °C 1005.4 hPa North 4.7 km/h 9.7 km/h 86% 0.0 mm 436 W/m2
11:02 9 °C 6.6 °C 1005.4 hPa North 3.2 km/h 27.4 km/h 85% 0.0 mm 316 W/m2
11:07 9.1 °C 6.7 °C 1005.1 hPa NW 4.7 km/h 6.4 km/h 85% 0.0 mm 294 W/m2
11:12 9.2 °C 6.8 °C 1005.1 hPa NNW 7.9 km/h 9.7 km/h 85% 0.0 mm 325 W/m2
11:17 9.2 °C 6.8 °C 1005.4 hPa NNW 7.9 km/h 16.1 km/h 85% 0.0 mm 411 W/m2
11:22 9.3 °C 6.9 °C 1005.1 hPa NW 3.2 km/h 11.3 km/h 85% 0.0 mm 338 W/m2
11:27 9.4 °C 6.8 °C 1005.4 hPa West 11.1 km/h 20.9 km/h 84% 0.0 mm 322 W/m2
11:32 9.6 °C 7.2 °C 1005.4 hPa NW 7.9 km/h 12.9 km/h 85% 0.0 mm 288 W/m2
11:37 9.7 °C 7.1 °C 1005.4 hPa West 20.9 km/h 25.7 km/h 84% 0.0 mm 350 W/m2
11:42 9.7 °C 7.1 °C 1005.4 hPa NW 9.7 km/h 17.7 km/h 84% 0.0 mm 374 W/m2
11:47 9.8 °C 7.2 °C 1005.4 hPa NW 1.4 km/h 12.9 km/h 84% 0.0 mm 396 W/m2
11:52 9.9 °C 7.1 °C 1005.4 hPa NNW 7.9 km/h 22.5 km/h 83% 0.0 mm 176 W/m2
11:57 9.9 °C 7.1 °C 1005.8 hPa WNW 17.7 km/h 24.1 km/h 83% 0.0 mm 292 W/m2
12:02 9.9 °C 7.1 °C 1005.4 hPa South 6.4 km/h 19.3 km/h 83% 0.0 mm 299 W/m2
12:07 9.9 °C 7.1 °C 1005.4 hPa West 11.1 km/h 24.1 km/h 83% 0.0 mm 427 W/m2
12:12 10.1 °C 7.3 °C 1005.4 hPa West 9.7 km/h 20.9 km/h 83% 0.0 mm 478 W/m2
12:17 10.2 °C 7.4 °C 1005.1 hPa West 9.7 km/h 29 km/h 83% 0.0 mm 496 W/m2
12:22 10.3 °C 7.5 °C 1005.4 hPa South 6.4 km/h 17.7 km/h 83% 0.0 mm 281 W/m2
12:27 10.3 °C 7.5 °C 1005.4 hPa NE 7.9 km/h 11.3 km/h 83% 0.0 mm 343 W/m2
12:32 10.3 °C 7.5 °C 1005.1 hPa WNW 11.1 km/h 14.5 km/h 83% 0.0 mm 387 W/m2
12:37 10.6 °C 7.7 °C 1005.4 hPa NNE 7.9 km/h 16.1 km/h 82% 0.0 mm 410 W/m2
12:42 10.7 °C 7.6 °C 1005.1 hPa NE 3.2 km/h 14.5 km/h 81% 0.0 mm 341 W/m2
12:47 11 °C 8 °C 1005.1 hPa WNW 14.3 km/h 14.5 km/h 82% 0.0 mm 803 W/m2
12:53 11.2 °C 7.7 °C 1005.1 hPa NNW 4.7 km/h 25.7 km/h 79% 0.0 mm 401 W/m2
12:58 11.2 °C 7.7 °C 1004.7 hPa East 1.4 km/h 14.5 km/h 79% 0.0 mm 499 W/m2
13:03 11.3 °C 7.6 °C 1005.1 hPa NW 9.7 km/h 29 km/h 78% 0.0 mm 448 W/m2
13:08 11.3 °C 7.6 °C 1005.1 hPa NNW 7.9 km/h 8 km/h 78% 0.0 mm 578 W/m2
13:13 11.6 °C 8.1 °C 1005.1 hPa ENE 3.2 km/h 29 km/h 79% 0.0 mm 341 W/m2
13:18 11.7 °C 7.8 °C 1005.1 hPa West 11.1 km/h 12.9 km/h 77% 0.0 mm 283 W/m2
13:23 11.7 °C 7.8 °C 1005.1 hPa West 13 km/h 22.5 km/h 77% 0.0 mm 420 W/m2
13:28 11.7 °C 7.8 °C 1005.1 hPa SE 13 km/h 38.6 km/h 77% 0.0 mm 367 W/m2
13:33 11.8 °C 7.9 °C 1005.1 hPa WSW 4.7 km/h 16.1 km/h 77% 0.0 mm 325 W/m2
13:38 12 °C 7.9 °C 1004.7 hPa WNW 19.5 km/h 37 km/h 76% 0.0 mm 257 W/m2
13:43 12.1 °C 7.8 °C 1005.1 hPa WNW 4.7 km/h 14.5 km/h 75% 0.0 mm 271 W/m2
13:48 12.1 °C 7.6 °C 1005.1 hPa SSE 9.7 km/h 12.9 km/h 74% 0.0 mm 178 W/m2
13:53 12.1 °C 7.8 °C 1004.7 hPa WNW 11.1 km/h 12.9 km/h 75% 0.0 mm 244 W/m2
13:58 12 °C 7.7 °C 1004.7 hPa NE 1.4 km/h 8 km/h 75% 0.0 mm 274 W/m2
14:03 11.9 °C 7.8 °C 1004.7 hPa West 13 km/h 12.9 km/h 76% 0.0 mm 243 W/m2
14:08 11.9 °C 7.8 °C 1004.7 hPa WNW 17.7 km/h 20.9 km/h 76% 0.0 mm 346 W/m2
14:13 11.9 °C 7.8 °C 1004.7 hPa NNE 16.3 km/h 16.1 km/h 76% 0.0 mm 248 W/m2
Juneau County Weather
Compliments of Weather Underground - 2 mb